Terminal Aerodrome Forecast
Issued by NWS Sterling, VA

Current Version | Previous Version | Text Only | Print | Product List | Glossary On
Versions: 1 2 3 4 5 6 7 8 9 10 11 12 13 14
271
FTUS41 KLWX 240535
TAFMRB
TAF
KMRB 240535Z 2406/2506 VRB03KT P6SM FEW250
     FM240900 00000KT 6SM BR FEW250
     FM241200 05005KT P6SM FEW250
     FM242300 VRB03KT P6SM FEW250=

USA.gov is the U.S. government's official web portal to all federal, state and local government web resources and services.